createdAt,value
2019-06-15T00:02:24.354Z,5.53
2019-06-15T00:04:50.655Z,5.93
2019-06-15T00:07:17.009Z,5.37
2019-06-15T00:09:43.339Z,5.00
2019-06-15T00:12:09.673Z,5.27
2019-06-15T00:14:35.978Z,4.67
2019-06-15T00:17:02.331Z,4.67
2019-06-15T00:19:28.661Z,5.67
2019-06-15T00:21:54.992Z,4.77
2019-06-15T00:24:34.605Z,4.80
2019-06-15T00:26:49.412Z,4.47
2019-06-15T00:29:15.724Z,5.30
2019-06-15T00:31:42.054Z,5.53
2019-06-15T00:34:08.387Z,6.83
2019-06-15T00:36:36.554Z,5.57
2019-06-15T00:39:04.839Z,5.67
2019-06-15T00:41:31.200Z,5.07
2019-06-15T00:43:57.514Z,5.80
2019-06-15T00:46:23.825Z,6.20
2019-06-15T00:48:50.471Z,5.97
2019-06-15T00:51:17.183Z,5.90
2019-06-15T00:53:43.536Z,5.97
2019-06-15T00:56:09.865Z,6.37
2019-06-15T00:58:36.194Z,5.63
2019-06-15T01:01:03.168Z,5.87
2019-06-15T01:03:29.485Z,5.70
2019-06-15T01:05:55.801Z,6.70
2019-06-15T01:08:22.130Z,6.37
2019-06-15T01:10:48.505Z,6.37
2019-06-15T01:13:14.895Z,8.00
2019-06-15T01:15:41.195Z,7.53
2019-06-15T01:18:07.556Z,7.60
2019-06-15T01:20:33.886Z,7.07
2019-06-15T01:23:00.215Z,7.30
2019-06-15T01:25:26.491Z,8.07
2019-06-15T01:27:52.880Z,9.23
2019-06-15T01:30:19.921Z,8.00
2019-06-15T01:32:46.342Z,7.83
2019-06-15T01:35:13.447Z,8.30
2019-06-15T01:37:39.836Z,7.43
2019-06-15T01:40:07.299Z,6.70
2019-06-15T01:42:33.725Z,6.70
2019-06-15T01:44:59.995Z,7.00
2019-06-15T01:47:26.302Z,6.83
2019-06-15T01:49:52.618Z,7.50
2019-06-15T01:52:18.892Z,7.17
2019-06-15T01:54:45.173Z,6.83
2019-06-15T01:57:11.507Z,7.17
2019-06-15T01:59:37.937Z,8.57
2019-06-15T02:02:04.575Z,8.07
2019-06-15T02:04:30.801Z,7.40
2019-06-15T02:06:57.136Z,8.33
2019-06-15T02:09:23.413Z,7.73
2019-06-15T02:11:49.895Z,7.17
2019-06-15T02:14:16.231Z,8.50
2019-06-15T02:16:42.671Z,7.80
2019-06-15T02:19:09.001Z,8.37
2019-06-15T02:21:35.261Z,7.73
2019-06-15T02:24:01.653Z,8.87
2019-06-15T02:26:27.986Z,9.70
2019-06-15T02:28:54.314Z,8.90
2019-06-15T02:31:20.644Z,9.30
2019-06-15T02:33:46.972Z,8.63
2019-06-15T02:36:13.237Z,8.17
2019-06-15T02:38:39.750Z,9.13
2019-06-15T02:41:06.169Z,8.90
2019-06-15T02:43:32.602Z,10.63
2019-06-15T02:45:59.048Z,9.87
2019-06-15T02:48:25.466Z,9.63
2019-06-15T02:50:51.900Z,10.17
2019-06-15T02:53:18.229Z,9.40
2019-06-15T02:55:50.651Z,9.93
2019-06-15T02:58:12.645Z,10.37
2019-06-15T03:01:00.924Z,10.57
2019-06-15T03:03:27.315Z,9.33
2019-06-15T03:05:53.725Z,11.23
2019-06-15T03:08:21.142Z,9.73
2019-06-15T03:10:47.630Z,10.17
2019-06-15T03:13:14.063Z,10.40
2019-06-15T03:15:40.400Z,10.57
2019-06-15T03:18:06.623Z,11.97
2019-06-15T03:20:32.954Z,11.30
2019-06-15T03:22:59.283Z,11.57
2019-06-15T03:25:25.613Z,13.43
2019-06-15T03:27:51.944Z,12.60
2019-06-15T03:30:20.939Z,13.30
2019-06-15T03:32:47.239Z,12.80
2019-06-15T03:35:14.316Z,12.27
2019-06-15T03:37:40.528Z,12.37
2019-06-15T03:40:06.961Z,12.97
2019-06-15T03:42:33.626Z,13.40
2019-06-15T03:44:59.942Z,11.23
2019-06-15T03:47:26.273Z,13.47
2019-06-15T03:49:52.603Z,12.73
2019-06-15T03:52:18.935Z,12.70
2019-06-15T03:54:45.265Z,12.90
2019-06-15T03:57:11.598Z,15.57
2019-06-15T03:59:37.927Z,15.30
2019-06-15T04:02:04.360Z,14.83
2019-06-15T04:04:30.669Z,14.67
2019-06-15T04:06:57.019Z,15.10
2019-06-15T04:09:23.587Z,14.60
2019-06-15T04:11:49.987Z,15.87
2019-06-15T04:14:16.327Z,15.87
2019-06-15T04:16:42.593Z,16.83
2019-06-15T04:19:08.980Z,14.63
2019-06-15T04:21:35.309Z,16.67
2019-06-15T04:24:01.650Z,14.90
2019-06-15T04:26:35.993Z,15.30
2019-06-15T04:28:56.043Z,16.73
2019-06-15T04:31:22.515Z,15.30
2019-06-15T04:33:48.913Z,15.47
2019-06-15T04:36:15.189Z,16.63
2019-06-15T04:38:41.569Z,14.87
2019-06-15T04:41:07.843Z,16.10
2019-06-15T04:43:34.536Z,16.80
2019-06-15T04:46:00.868Z,17.00
2019-06-15T04:48:27.196Z,15.57
2019-06-15T04:50:53.446Z,15.10
2019-06-15T04:53:20.062Z,15.63
2019-06-15T04:55:46.392Z,15.03
2019-06-15T04:58:12.724Z,17.00
2019-06-15T05:00:40.719Z,15.20
2019-06-15T05:03:06.982Z,13.63
2019-06-15T05:05:33.274Z,15.37
2019-06-15T05:07:59.992Z,15.97
2019-06-15T05:10:26.735Z,15.17
2019-06-15T05:12:52.977Z,15.73
2019-06-15T05:15:20.071Z,15.93
2019-06-15T05:17:46.484Z,14.57
2019-06-15T05:20:13.384Z,14.60
2019-06-15T05:22:39.714Z,16.37
2019-06-15T05:25:06.657Z,15.80
2019-06-15T05:27:33.299Z,16.93
2019-06-15T05:29:59.582Z,16.07
2019-06-15T05:32:26.176Z,16.70
2019-06-15T05:34:52.494Z,16.43
2019-06-15T05:37:18.771Z,16.13
2019-06-15T05:39:45.069Z,16.53
2019-06-15T05:42:11.381Z,17.83
2019-06-15T05:44:37.723Z,18.23
2019-06-15T05:47:04.259Z,15.83
2019-06-15T05:49:30.577Z,18.37
2019-06-15T05:51:56.937Z,17.30
2019-06-15T05:54:24.577Z,18.77
2019-06-15T05:56:50.899Z,19.17
2019-06-15T05:59:17.151Z,18.30
2019-06-15T06:01:43.564Z,19.50
2019-06-15T06:04:11.235Z,19.17
2019-06-15T06:06:37.554Z,18.63
2019-06-15T06:09:06.033Z,18.50
2019-06-15T06:11:32.267Z,19.10
2019-06-15T06:13:58.592Z,18.13
2019-06-15T06:16:24.924Z,17.23
2019-06-15T06:18:51.177Z,18.97
2019-06-15T06:21:17.688Z,18.23
2019-06-15T06:23:44.017Z,18.10
2019-06-15T06:26:10.383Z,18.73
2019-06-15T06:28:36.781Z,18.37
2019-06-15T06:31:03.315Z,17.47
2019-06-15T06:33:29.653Z,18.70
2019-06-15T06:35:55.867Z,17.97
2019-06-15T06:38:22.205Z,18.07
2019-06-15T06:40:48.558Z,17.40
2019-06-15T06:43:14.969Z,19.60
2019-06-15T06:45:42.467Z,16.90
2019-06-15T06:48:08.770Z,15.63
2019-06-15T06:50:35.074Z,17.63
2019-06-15T06:53:01.415Z,17.43
2019-06-15T06:55:27.747Z,19.30
2019-06-15T06:57:57.163Z,17.60
2019-06-15T07:00:23.167Z,16.93
2019-06-15T07:02:49.502Z,19.60
2019-06-15T07:05:15.833Z,17.10
2019-06-15T07:07:42.170Z,18.03
2019-06-15T07:10:09.156Z,17.83
2019-06-15T07:12:36.462Z,17.60
2019-06-15T07:15:04.801Z,17.30
2019-06-15T07:17:31.276Z,17.33
2019-06-15T07:19:57.706Z,18.93
2019-06-15T07:22:23.995Z,17.90
2019-06-15T07:24:50.255Z,18.40
2019-06-15T07:27:16.583Z,18.80
2019-06-15T07:29:42.890Z,20.37
2019-06-15T07:32:10.139Z,17.30
2019-06-15T07:34:36.408Z,19.30
2019-06-15T07:37:02.737Z,19.87
2019-06-15T07:39:29.036Z,17.83
2019-06-15T07:41:55.396Z,17.23
2019-06-15T07:44:21.660Z,18.30
2019-06-15T07:46:48.075Z,19.30
2019-06-15T07:49:14.371Z,17.30
2019-06-15T07:51:40.821Z,17.23
2019-06-15T07:54:07.154Z,17.30
2019-06-15T07:56:33.358Z,17.20
2019-06-15T07:58:59.714Z,17.50
2019-06-15T08:01:26.147Z,16.20
2019-06-15T08:03:52.665Z,15.97
2019-06-15T08:06:18.953Z,16.43
2019-06-15T08:08:45.349Z,16.07
2019-06-15T08:11:11.775Z,15.53
2019-06-15T08:13:38.105Z,12.53
2019-06-15T08:16:04.433Z,14.53
2019-06-15T08:18:30.764Z,12.93
2019-06-15T08:20:57.158Z,13.90
2019-06-15T08:23:23.525Z,10.80
2019-06-15T08:25:49.857Z,11.53
2019-06-15T08:28:16.187Z,11.37
2019-06-15T08:30:43.220Z,9.17
2019-06-15T08:33:10.216Z,9.23
2019-06-15T08:35:36.612Z,9.97
2019-06-15T08:38:03.604Z,8.77
2019-06-15T08:40:29.889Z,8.07
2019-06-15T08:42:56.218Z,7.67
2019-06-15T08:45:22.551Z,7.13
2019-06-15T08:47:48.760Z,7.60
2019-06-15T08:50:15.221Z,6.63
2019-06-15T08:52:41.475Z,6.00
2019-06-15T08:55:07.862Z,5.53
2019-06-15T08:57:36.364Z,6.40
2019-06-15T09:00:07.758Z,5.47
2019-06-15T09:02:34.185Z,4.57
2019-06-15T09:05:00.484Z,4.13
2019-06-15T09:07:26.782Z,4.03
2019-06-15T09:09:53.097Z,4.90
2019-06-15T09:12:19.778Z,4.13
2019-06-15T09:14:46.091Z,4.17
2019-06-15T09:17:12.743Z,4.03
2019-06-15T09:19:39.162Z,3.80
2019-06-15T09:22:05.440Z,3.40
2019-06-15T09:24:31.822Z,2.90
2019-06-15T09:26:58.153Z,2.80
2019-06-15T09:29:24.482Z,2.43
2019-06-15T09:31:50.761Z,3.07
2019-06-15T09:34:19.293Z,2.80
2019-06-15T09:36:45.626Z,2.90
2019-06-15T09:39:14.528Z,4.23
2019-06-15T09:41:39.968Z,3.30
2019-06-15T09:44:06.665Z,2.97
2019-06-15T09:46:33.097Z,2.80
2019-06-15T09:48:59.839Z,4.30
2019-06-15T09:51:26.157Z,2.90
2019-06-15T09:53:52.498Z,3.07
2019-06-15T09:56:18.728Z,2.73
2019-06-15T09:58:45.057Z,3.47
2019-06-15T10:01:11.621Z,2.43
2019-06-15T10:03:37.925Z,2.83
2019-06-15T10:06:05.664Z,2.80
2019-06-15T10:08:32.252Z,2.77
2019-06-15T10:10:58.552Z,2.90
2019-06-15T10:13:24.783Z,2.63
2019-06-15T10:15:51.112Z,2.60
2019-06-15T10:18:17.482Z,2.40
2019-06-15T10:20:43.876Z,2.63
2019-06-15T10:23:10.252Z,2.60
2019-06-15T10:25:36.652Z,2.47
2019-06-15T10:28:03.080Z,2.50
2019-06-15T10:30:29.348Z,2.43
2019-06-15T10:32:55.736Z,2.93
2019-06-15T10:35:22.067Z,2.70
2019-06-15T10:37:48.499Z,2.93
2019-06-15T10:40:15.851Z,3.00
2019-06-15T10:42:42.166Z,3.10
2019-06-15T10:45:09.331Z,2.60
2019-06-15T10:47:35.548Z,2.07
2019-06-15T10:50:07.202Z,1.97
2019-06-15T10:52:33.592Z,2.10
2019-06-15T10:54:59.909Z,2.30
2019-06-15T10:57:26.210Z,2.13
2019-06-15T10:59:57.345Z,2.27
2019-06-15T11:02:21.026Z,2.87
2019-06-15T11:04:47.361Z,2.10
2019-06-15T11:07:13.636Z,2.50
2019-06-15T11:09:40.109Z,5.43
2019-06-15T11:12:06.353Z,2.50
2019-06-15T11:14:32.668Z,2.30
2019-06-15T11:17:00.226Z,3.00
2019-06-15T11:19:26.557Z,2.40
2019-06-15T11:21:52.877Z,2.50
2019-06-15T11:24:19.174Z,2.50
2019-06-15T11:26:45.479Z,2.90
2019-06-15T11:29:11.776Z,2.53
2019-06-15T11:31:38.208Z,2.57
2019-06-15T11:34:04.539Z,2.60
2019-06-15T11:36:31.142Z,2.60
2019-06-15T11:38:57.547Z,2.73
2019-06-15T11:41:23.939Z,3.20
2019-06-15T11:43:50.270Z,2.70
2019-06-15T11:46:16.537Z,2.90
2019-06-15T11:48:42.825Z,2.73
2019-06-15T11:51:09.156Z,2.30
2019-06-15T11:53:35.709Z,2.60
2019-06-15T11:56:02.025Z,2.70
2019-06-15T11:58:28.294Z,2.70
2019-06-15T12:00:54.685Z,2.87
2019-06-15T12:03:20.972Z,2.67
2019-06-15T12:05:47.449Z,3.10
2019-06-15T12:08:13.896Z,2.97
2019-06-15T12:10:40.175Z,2.67
2019-06-15T12:13:07.935Z,2.80
2019-06-15T12:15:34.297Z,2.43
2019-06-15T12:18:00.842Z,2.70
2019-06-15T12:20:27.106Z,3.60
2019-06-15T12:22:53.403Z,3.33
2019-06-15T12:25:19.780Z,3.10
2019-06-15T12:27:46.163Z,3.43
2019-06-15T12:30:13.098Z,3.13
2019-06-15T12:32:39.414Z,3.03
2019-06-15T12:35:07.510Z,4.30
2019-06-15T12:37:34.148Z,3.30
2019-06-15T12:40:00.478Z,3.40
2019-06-15T12:42:26.808Z,3.13
2019-06-15T12:44:53.139Z,3.67
2019-06-15T12:47:19.682Z,3.37
2019-06-15T12:49:46.324Z,3.37
2019-06-15T12:52:12.744Z,3.43
2019-06-15T12:54:39.026Z,3.07
2019-06-15T12:57:05.629Z,3.20
2019-06-15T12:59:31.926Z,3.10
2019-06-15T13:01:58.401Z,4.07
2019-06-15T13:04:24.705Z,3.87
2019-06-15T13:06:51.362Z,3.60
2019-06-15T13:09:17.696Z,3.90
2019-06-15T13:11:43.986Z,3.80
2019-06-15T13:14:10.331Z,3.67
2019-06-15T13:16:39.642Z,4.63
2019-06-15T13:19:04.695Z,6.07
2019-06-15T13:21:30.994Z,6.37
2019-06-15T13:23:57.393Z,6.23
2019-06-15T13:26:23.831Z,5.97
2019-06-15T13:28:51.217Z,10.93
2019-06-15T13:31:18.630Z,5.87
2019-06-15T13:33:45.070Z,6.33
2019-06-15T13:36:12.512Z,6.47
2019-06-15T13:38:41.987Z,8.13
2019-06-15T13:41:08.362Z,7.67
2019-06-15T13:43:34.591Z,8.20
2019-06-15T13:46:00.866Z,8.10
2019-06-15T13:48:27.254Z,7.43
2019-06-15T13:50:53.582Z,6.97
2019-06-15T13:53:19.803Z,7.77
2019-06-15T13:55:46.092Z,7.80
2019-06-15T13:58:12.473Z,7.83
2019-06-15T14:00:39.059Z,7.50
2019-06-15T14:03:05.661Z,8.03
2019-06-15T14:05:31.922Z,8.13
2019-06-15T14:07:58.231Z,9.47
2019-06-15T14:10:24.640Z,10.97
2019-06-15T14:12:50.967Z,9.17
2019-06-15T14:15:17.430Z,10.33
2019-06-15T14:17:43.830Z,9.60
2019-06-15T14:20:10.526Z,10.27
2019-06-15T14:22:36.909Z,10.07
2019-06-15T14:25:05.484Z,10.80
2019-06-15T14:27:31.718Z,10.37
2019-06-15T14:29:58.177Z,9.13
2019-06-15T14:32:24.582Z,9.17
2019-06-15T14:34:50.909Z,9.70
2019-06-15T14:37:17.342Z,8.23
2019-06-15T14:39:45.308Z,8.23
2019-06-15T14:42:11.538Z,8.80
2019-06-15T14:44:37.870Z,9.30
2019-06-15T14:47:04.421Z,9.23
2019-06-15T14:49:30.838Z,8.93
2019-06-15T14:51:57.884Z,9.10
2019-06-15T14:54:26.383Z,10.27
2019-06-15T14:56:52.495Z,10.17
2019-06-15T14:59:18.818Z,9.40
2019-06-15T15:01:47.038Z,9.57
2019-06-15T15:04:13.218Z,10.03
2019-06-15T15:06:39.653Z,10.37
2019-06-15T15:09:06.555Z,10.70
2019-06-15T15:11:33.134Z,10.10
2019-06-15T15:13:59.462Z,10.87
2019-06-15T15:16:26.042Z,9.93
2019-06-15T15:18:52.643Z,11.37
2019-06-15T15:21:18.867Z,9.17
2019-06-15T15:23:46.399Z,9.20
2019-06-15T15:26:12.964Z,9.00
2019-06-15T15:28:39.288Z,12.37
2019-06-15T15:31:06.434Z,11.33
2019-06-15T15:33:33.289Z,9.47
2019-06-15T15:35:59.760Z,10.97
2019-06-15T15:38:26.043Z,9.67
2019-06-15T15:40:52.591Z,9.17
2019-06-15T15:43:19.058Z,8.27
2019-06-15T15:45:46.059Z,9.80
2019-06-15T15:48:12.462Z,10.70
2019-06-15T15:50:38.821Z,10.83
2019-06-15T15:53:05.157Z,11.67
2019-06-15T15:55:31.482Z,10.80
2019-06-15T15:57:57.813Z,11.20
2019-06-15T16:00:27.877Z,10.90
2019-06-15T16:02:56.512Z,9.73
2019-06-15T16:05:22.337Z,9.77
2019-06-15T16:07:48.664Z,10.37
2019-06-15T16:10:16.054Z,8.93
2019-06-15T16:12:42.656Z,8.60
2019-06-15T16:15:09.435Z,8.83
2019-06-15T16:17:37.312Z,8.47
2019-06-15T16:20:07.541Z,7.80
2019-06-15T16:22:33.890Z,8.90
2019-06-15T16:25:01.163Z,8.47
2019-06-15T16:27:27.452Z,9.17
2019-06-15T16:29:53.831Z,8.73
2019-06-15T16:32:20.161Z,9.00
2019-06-15T16:34:47.529Z,9.40
2019-06-15T16:37:13.899Z,7.80
2019-06-15T16:39:40.313Z,8.00
2019-06-15T16:42:06.661Z,7.73
2019-06-15T16:44:32.945Z,7.47
2019-06-15T16:46:59.274Z,8.00
2019-06-15T16:49:26.814Z,9.13
2019-06-15T16:51:53.481Z,9.53
2019-06-15T16:54:19.741Z,8.37
2019-06-15T16:56:46.623Z,8.77
2019-06-15T16:59:13.022Z,8.50
2019-06-15T17:01:39.408Z,8.57
2019-06-15T17:04:06.157Z,8.73
2019-06-15T17:06:32.678Z,7.83
2019-06-15T17:08:58.914Z,8.00
2019-06-15T17:11:26.327Z,8.30
2019-06-15T17:13:53.119Z,8.10
2019-06-15T17:16:19.421Z,7.97
2019-06-15T17:18:47.133Z,7.93
2019-06-15T17:21:16.989Z,7.70
2019-06-15T17:23:41.659Z,6.80
2019-06-15T17:26:08.032Z,7.37
2019-06-15T17:28:36.735Z,7.10
2019-06-15T17:31:02.434Z,6.70
2019-06-15T17:33:37.459Z,6.40
2019-06-15T17:36:02.821Z,6.17
2019-06-15T17:38:27.133Z,6.53
2019-06-15T17:40:53.077Z,7.03
2019-06-15T17:43:19.411Z,6.93
2019-06-15T17:45:46.887Z,6.10
2019-06-15T17:48:13.413Z,6.70
2019-06-15T17:50:42.396Z,7.40
2019-06-15T17:53:08.726Z,7.67
2019-06-15T17:55:36.728Z,7.10
2019-06-15T17:58:06.520Z,6.43
2019-06-15T18:00:46.692Z,6.57
2019-06-15T18:03:11.904Z,6.47
2019-06-15T18:05:38.433Z,6.67
2019-06-15T18:08:06.735Z,6.73
2019-06-15T18:10:32.918Z,6.63
2019-06-15T18:12:59.347Z,5.53
2019-06-15T18:15:26.542Z,5.97
2019-06-15T18:17:53.029Z,5.40
2019-06-15T18:20:21.322Z,5.37
2019-06-15T18:22:47.947Z,5.63
2019-06-15T18:25:14.370Z,5.03
2019-06-15T18:27:40.757Z,5.13
2019-06-15T18:30:07.448Z,5.40
2019-06-15T18:32:37.858Z,4.77
2019-06-15T18:35:06.112Z,5.47
2019-06-15T18:37:33.823Z,6.70
2019-06-15T18:40:00.133Z,8.33
2019-06-15T18:42:26.425Z,9.87
2019-06-15T18:44:53.101Z,9.53
2019-06-15T18:47:19.431Z,9.67
2019-06-15T18:49:47.389Z,9.90
2019-06-15T18:52:13.840Z,10.07
2019-06-15T18:54:40.157Z,10.87
2019-06-15T18:57:07.407Z,9.60
2019-06-15T18:59:36.421Z,10.77
2019-06-15T19:02:02.160Z,11.03
2019-06-15T19:04:31.096Z,11.60
2019-06-15T19:06:56.599Z,11.40
2019-06-15T19:09:22.882Z,10.77
2019-06-15T19:11:49.449Z,9.63
2019-06-15T19:14:16.583Z,11.40
2019-06-15T19:16:43.042Z,8.90
2019-06-15T19:19:09.401Z,8.73
2019-06-15T19:21:35.737Z,8.73
2019-06-15T19:24:02.071Z,8.80
2019-06-15T19:26:28.616Z,8.53
2019-06-15T19:28:55.991Z,7.93
2019-06-15T19:31:22.595Z,8.63
2019-06-15T19:33:49.151Z,8.83
2019-06-15T19:36:15.563Z,8.63
2019-06-15T19:38:41.859Z,9.20
2019-06-15T19:41:08.224Z,9.40
2019-06-15T19:43:36.288Z,11.10
2019-06-15T19:46:02.835Z,9.63
2019-06-15T19:48:29.166Z,9.70
2019-06-15T19:50:56.586Z,9.67
2019-06-15T19:53:27.158Z,10.23
2019-06-15T19:55:51.298Z,9.70
2019-06-15T19:58:17.864Z,9.83
2019-06-15T20:00:46.542Z,10.40
2019-06-15T20:03:12.431Z,10.30
2019-06-15T20:05:39.016Z,9.90
2019-06-15T20:08:07.312Z,10.10
2019-06-15T20:10:36.723Z,9.63
2019-06-15T20:13:01.622Z,10.57
2019-06-15T20:15:28.056Z,10.53
2019-06-15T20:17:56.820Z,10.73
2019-06-15T20:20:22.733Z,10.00
2019-06-15T20:22:49.157Z,10.33
2019-06-15T20:25:16.055Z,10.93
2019-06-15T20:27:42.448Z,10.73
2019-06-15T20:30:09.440Z,11.20
2019-06-15T20:32:36.900Z,10.43
2019-06-15T20:35:16.615Z,12.47
2019-06-15T20:37:36.939Z,9.93
2019-06-15T20:40:06.576Z,9.67
2019-06-15T20:42:32.847Z,9.83
2019-06-15T20:44:59.234Z,10.70
2019-06-15T20:47:26.422Z,12.83
2019-06-15T20:49:53.237Z,11.47
2019-06-15T20:52:19.558Z,11.93
2019-06-15T20:54:46.434Z,11.97
2019-06-15T20:57:13.140Z,10.87
2019-06-15T20:59:39.789Z,11.20
2019-06-15T21:02:06.745Z,9.27
2019-06-15T21:04:33.373Z,11.83
2019-06-15T21:06:59.688Z,11.30
2019-06-15T21:09:27.606Z,12.27
2019-06-15T21:11:54.022Z,10.50
2019-06-15T21:14:20.533Z,10.53
2019-06-15T21:16:46.977Z,11.00
2019-06-15T21:19:13.389Z,10.97
2019-06-15T21:21:39.720Z,12.47
2019-06-15T21:24:06.487Z,11.97
2019-06-15T21:26:33.325Z,11.53
2019-06-15T21:28:59.951Z,12.23
2019-06-15T21:31:26.390Z,13.47
2019-06-15T21:33:53.011Z,12.50
2019-06-15T21:36:19.443Z,15.40
2019-06-15T21:38:46.839Z,11.03
2019-06-15T21:41:13.235Z,14.03
2019-06-15T21:43:39.559Z,13.23
2019-06-15T21:46:06.495Z,12.03
2019-06-15T21:48:33.146Z,12.33
2019-06-15T21:50:59.791Z,11.37
2019-06-15T21:53:26.710Z,13.20
2019-06-15T21:55:53.158Z,12.23
2019-06-15T21:58:19.404Z,14.60
2019-06-15T22:01:09.573Z,14.20
2019-06-15T22:03:36.823Z,13.47
2019-06-15T22:06:05.994Z,12.53
2019-06-15T22:08:31.435Z,14.03
2019-06-15T22:10:57.682Z,12.70
2019-06-15T22:13:26.417Z,14.20
2019-06-15T22:15:52.084Z,14.33
2019-06-15T22:18:18.495Z,15.40
2019-06-15T22:20:47.023Z,14.03
2019-06-15T22:23:13.020Z,13.20
2019-06-15T22:25:39.439Z,16.10
2019-06-15T22:28:06.934Z,15.17
2019-06-15T22:30:33.427Z,14.40
2019-06-15T22:32:59.722Z,12.77
2019-06-15T22:35:27.042Z,15.03
2019-06-15T22:37:53.406Z,16.37
2019-06-15T22:40:20.494Z,15.83
2019-06-15T22:42:47.208Z,15.93
2019-06-15T22:45:13.746Z,16.47
2019-06-15T22:47:40.094Z,16.10
2019-06-15T22:50:07.154Z,14.43
2019-06-15T22:52:36.229Z,12.83
2019-06-15T22:55:01.777Z,13.73
2019-06-15T22:57:28.085Z,13.60
2019-06-15T22:59:56.627Z,14.23
2019-06-15T23:02:22.588Z,14.73
2019-06-15T23:04:48.796Z,13.60
2019-06-15T23:07:16.121Z,13.40
2019-06-15T23:09:42.596Z,13.47
2019-06-15T23:12:09.028Z,13.90
2019-06-15T23:14:37.288Z,13.77
2019-06-15T23:17:03.738Z,13.97
2019-06-15T23:19:30.068Z,14.60
2019-06-15T23:21:57.278Z,14.13
2019-06-15T23:24:23.754Z,12.87
2019-06-15T23:26:50.085Z,12.97
2019-06-15T23:29:16.604Z,13.60
2019-06-15T23:31:43.061Z,13.43
2019-06-15T23:34:09.381Z,13.70
2019-06-15T23:36:56.191Z,14.40
2019-06-15T23:39:11.771Z,13.50
2019-06-15T23:41:38.031Z,14.63
2019-06-15T23:44:04.467Z,14.07
2019-06-15T23:46:30.919Z,13.23
2019-06-15T23:48:57.297Z,15.90
2019-06-15T23:51:26.239Z,15.93
2019-06-15T23:53:51.644Z,14.87
2019-06-15T23:56:17.939Z,15.23
2019-06-15T23:58:46.210Z,14.13
